Jhelum Weather



Jhelum's Current Weather

Temprature 22.926o clear sky

clear sky

Rain: 0 %

Min Temprature22.926o
Max Temprature22.926o
Humidity52
Wind Speed1.57 m/h
Sun Rise05:28:50
Sun Set18:38:39
Current Time: 21-Apr-2019 05:50:32
Lat/Lon: 32.94, 73.72




Jhelum's Geo Location



Jhelum's Weather Forecast

Time Overall Temp Min Temp Max Temp Humidity Wind Speed Rain
21-Apr-2019 (Sun)
08:00:00 clear sky 26.700 26.699 26.700 40 1.34 m/h 0 %
11:00:00 clear sky 31.550 31.550 31.550 29 1.06 m/h 0 %
14:00:00 clear sky 33.450 33.450 33.450 23 2.31 m/h 0 %
17:00:00 clear sky 33.750 33.750 33.750 22 2.13 m/h 0 %
20:00:00 clear sky 29.050 29.050 29.050 31 2.42 m/h 0 %
23:00:00 clear sky 26.670 26.670 26.670 34 2.39 m/h 0 %
22-Apr-2019 (Mon)
02:00:00 clear sky 24.870 24.870 24.870 38 2.18 m/h 0 %
05:00:00 clear sky 23.514 23.514 23.514 40 2.48 m/h 0 %
08:00:00 clear sky 27.546 27.546 27.546 32 1.87 m/h 0 %
11:00:00 clear sky 32.620 32.620 32.620 24 2.28 m/h 0 %
14:00:00 clear sky 36.015 36.015 36.015 19 4.13 m/h 0 %
17:00:00 clear sky 35.231 35.231 35.231 20 4.38 m/h 0 %
20:00:00 clear sky 29.650 29.650 29.650 29 2.9 m/h 0 %
23:00:00 clear sky 27.396 27.396 27.396 33 2.34 m/h 0 %
23-Apr-2019 (Tue)
02:00:00 clear sky 25.477 25.477 25.477 35 2.64 m/h 0 %
05:00:00 scattered clouds 24.476 24.476 24.476 35 3.18 m/h 0 %
08:00:00 overcast clouds 28.387 28.387 28.387 29 2.39 m/h 0 %
11:00:00 overcast clouds 33.150 33.150 33.150 23 3.02 m/h 0 %
14:00:00 broken clouds 36.250 36.250 36.250 16 3.79 m/h 0 %
17:00:00 scattered clouds 36.450 36.450 36.450 16 2.91 m/h 0 %
20:00:00 overcast clouds 31.228 31.228 31.228 23 1.6 m/h 0 %
23:00:00 broken clouds 28.750 28.750 28.750 25 3.26 m/h 0 %
24-Apr-2019 (Wed)
02:00:00 broken clouds 26.882 26.882 26.882 25 2.42 m/h 0 %
05:00:00 broken clouds 26.504 26.504 26.504 23 1.91 m/h 0 %
08:00:00 overcast clouds 29.850 29.850 29.850 21 1.85 m/h 0 %
11:00:00 overcast clouds 36.409 36.409 36.409 15 3.82 m/h 0 %
14:00:00 broken clouds 39.650 39.650 39.650 11 6.66 m/h 0 %
17:00:00 broken clouds 37.050 37.050 37.050 15 3.53 m/h 0 %
20:00:00 overcast clouds 30.855 30.855 30.855 27 4.53 m/h 0 %
23:00:00 light rain 28.145 28.145 28.145 33 6.16 m/h 44 %
25-Apr-2019 (Thu)
02:00:00 overcast clouds 27.450 27.450 27.450 36 5.72 m/h 0 %
05:00:00 overcast clouds 26.932 26.932 26.932 33 1.8 m/h 0 %
08:00:00 overcast clouds 27.120 27.120 27.120 39 1.87 m/h 0 %
11:00:00 overcast clouds 33.990 33.990 33.990 21 2.11 m/h 0 %
14:00:00 clear sky 36.850 36.850 36.850 15 1.82 m/h 0 %
17:00:00 clear sky 37.111 37.111 37.111 14 2.28 m/h 0 %
20:00:00 scattered clouds 30.225 30.225 30.225 17 2.61 m/h 0 %
23:00:00 few clouds 27.643 27.643 27.643 19 2.93 m/h 0 %
26-Apr-2019 (Fri)
02:00:00 clear sky 25.532 25.532 25.532 21 2.65 m/h 0 %
05:00:00 light rain 24.846 24.846 24.846 26 2.3 m/h 19 %

Famous Cities (60)